createdAt,value
2023-05-24T00:00:16.018Z,95725.81
2023-05-24T00:02:45.816Z,95726.88
2023-05-24T00:05:16.904Z,95716.66
2023-05-24T00:07:46.702Z,95715.59
2023-05-24T00:10:16.390Z,95709.06
2023-05-24T00:12:46.114Z,95712.31
2023-05-24T00:15:17.083Z,95707.97
2023-05-24T00:17:46.793Z,95708.25
2023-05-24T00:20:17.218Z,95707.97
2023-05-24T00:22:47.060Z,95710.13
2023-05-24T00:25:16.712Z,95711.75
2023-05-24T00:27:46.437Z,95710.66
2023-05-24T00:30:17.557Z,95708.75
2023-05-24T00:32:47.189Z,95705.25
2023-05-24T00:35:16.778Z,95704.72
2023-05-24T00:37:46.633Z,95702.56
2023-05-24T00:40:18.950Z,95701.47
2023-05-24T00:42:48.453Z,95693.41
2023-05-24T00:45:20.617Z,95703.38
2023-05-24T00:47:50.487Z,95703.66
2023-05-24T00:50:21.155Z,95706.09
2023-05-24T00:52:52.754Z,95706.09
2023-05-24T00:55:22.515Z,95705.00
2023-05-24T00:57:55.102Z,95709.31
2023-05-24T01:00:27.294Z,95712.00
2023-05-24T01:02:57.252Z,95705.00
2023-05-24T01:05:26.885Z,95701.75
2023-05-24T01:08:15.051Z,95707.16
2023-05-24T01:10:59.173Z,95698.78
2023-05-24T01:13:39.490Z,95698.25
2023-05-24T01:16:18.691Z,95694.19
2023-05-24T01:18:55.438Z,95694.47
2023-05-24T01:21:56.386Z,95692.56
2023-05-24T01:24:33.660Z,95689.59
2023-05-24T01:27:10.100Z,95692.84
2023-05-24T01:29:40.533Z,95686.34
2023-05-24T01:32:11.271Z,95686.34
2023-05-24T01:34:42.342Z,95690.41
2023-05-24T01:37:11.858Z,95689.31
2023-05-24T01:39:42.704Z,95680.97
2023-05-24T01:42:28.560Z,95686.38
2023-05-24T01:45:10.432Z,95684.47
2023-05-24T01:47:58.404Z,95681.78
2023-05-24T01:50:33.649Z,95684.22
2023-05-24T01:53:08.903Z,95689.09
2023-05-24T01:55:40.828Z,95687.47
2023-05-24T01:58:12.498Z,95691.25
2023-05-24T02:00:42.941Z,95689.09
2023-05-24T02:03:15.593Z,95695.03
2023-05-24T02:05:46.395Z,95695.31
2023-05-24T02:08:16.063Z,95692.06
2023-05-24T02:10:45.623Z,95693.16
2023-05-24T02:13:18.187Z,95688.84
2023-05-24T02:15:47.991Z,95697.47
2023-05-24T02:18:18.819Z,95698.28
2023-05-24T02:20:48.411Z,95695.59
2023-05-24T02:23:19.016Z,95695.03
2023-05-24T02:25:48.624Z,95694.50
2023-05-24T02:28:19.621Z,95692.91
2023-05-24T02:30:49.351Z,95685.59
2023-05-24T02:33:19.065Z,95687.22
2023-05-24T02:35:48.623Z,95682.09
2023-05-24T02:38:18.302Z,95684.78
2023-05-24T02:40:47.926Z,95682.91
2023-05-24T02:43:18.875Z,95692.09
2023-05-24T02:45:48.702Z,95681.34
2023-05-24T02:48:18.233Z,95689.69
2023-05-24T02:50:47.880Z,95684.84
2023-05-24T02:53:17.425Z,95681.63
2023-05-24T02:55:47.345Z,95679.19
2023-05-24T02:58:19.732Z,95683.25
2023-05-24T03:00:52.131Z,95677.03
2023-05-24T03:03:23.684Z,95678.66
2023-05-24T03:05:53.461Z,95677.03
2023-05-24T03:08:23.195Z,95673.00
2023-05-24T03:10:52.776Z,95679.22
2023-05-24T03:13:23.734Z,95681.34
2023-05-24T03:15:53.317Z,95668.97
2023-05-24T03:18:23.099Z,95677.06
2023-05-24T03:20:52.993Z,95681.13
2023-05-24T03:23:22.584Z,95684.34
2023-05-24T03:25:52.292Z,95685.69
2023-05-24T03:28:23.547Z,95684.09
2023-05-24T03:30:53.168Z,95677.91
2023-05-24T03:33:22.895Z,95684.38
2023-05-24T03:35:53.037Z,95682.75
2023-05-24T03:38:22.635Z,95690.03
2023-05-24T03:40:52.246Z,95688.94
2023-05-24T03:43:23.218Z,95687.34
2023-05-24T03:45:58.353Z,95698.38
2023-05-24T03:48:28.109Z,95702.44
2023-05-24T03:50:57.738Z,95704.59
2023-05-24T03:53:27.421Z,95695.97
2023-05-24T03:55:57.404Z,95701.88
2023-05-24T03:58:28.339Z,95703.25
2023-05-24T04:00:58.086Z,95704.31
2023-05-24T04:03:27.707Z,95708.09
2023-05-24T04:05:58.125Z,95713.47
2023-05-24T04:08:27.661Z,95713.47
2023-05-24T04:10:57.277Z,95716.44
2023-05-24T04:13:28.261Z,95709.44
2023-05-24T04:15:57.924Z,95714.56
2023-05-24T04:18:27.725Z,95717.25
2023-05-24T04:20:57.989Z,95719.16
2023-05-24T04:23:27.605Z,95722.66
2023-05-24T04:25:57.145Z,95712.66
2023-05-24T04:28:28.420Z,95716.72
2023-05-24T04:30:58.810Z,95719.41
2023-05-24T04:33:28.636Z,95717.78
2023-05-24T04:36:01.090Z,95728.84
2023-05-24T04:38:32.349Z,95725.06
2023-05-24T04:41:02.085Z,95731.84
2023-05-24T04:43:33.645Z,95723.75
2023-05-24T04:46:03.300Z,95724.03
2023-05-24T04:48:32.880Z,95725.91
2023-05-24T04:51:02.881Z,95735.34
2023-05-24T04:53:32.956Z,95728.31
2023-05-24T04:56:02.649Z,95720.78
2023-05-24T04:58:33.968Z,95721.03
2023-05-24T05:01:03.692Z,95728.06
2023-05-24T05:03:33.321Z,95724.56
2023-05-24T05:06:03.029Z,95720.50
2023-05-24T05:08:32.726Z,95719.97
2023-05-24T05:11:02.820Z,95727.25
2023-05-24T05:13:33.729Z,95725.09
2023-05-24T05:16:03.775Z,95726.19
2023-05-24T05:18:33.951Z,95734.00
2023-05-24T05:21:04.035Z,95724.03
2023-05-24T05:23:33.667Z,95728.84
2023-05-24T05:26:03.210Z,95724.81
2023-05-24T05:28:34.290Z,95731.53
2023-05-24T05:31:03.936Z,95719.16
2023-05-24T05:33:34.404Z,95723.75
2023-05-24T05:36:04.133Z,95717.28
2023-05-24T05:38:33.823Z,95716.19
2023-05-24T05:41:03.459Z,95712.66
2023-05-24T05:43:34.431Z,95714.56
2023-05-24T05:46:04.230Z,95717.78
2023-05-24T05:48:33.859Z,95717.53
2023-05-24T05:51:03.481Z,95715.38
2023-05-24T05:53:35.583Z,95714.28
2023-05-24T05:56:05.521Z,95706.72
2023-05-24T05:58:38.555Z,95700.25
2023-05-24T06:01:08.007Z,95713.72
2023-05-24T06:03:37.669Z,95702.13
2023-05-24T06:06:07.846Z,95709.41
2023-05-24T06:08:37.478Z,95703.19
2023-05-24T06:11:07.442Z,95706.38
2023-05-24T06:13:38.446Z,95713.09
2023-05-24T06:16:09.996Z,95719.59
2023-05-24T06:18:47.431Z,95710.13
2023-05-24T06:21:23.162Z,95709.59
2023-05-24T06:23:53.030Z,95708.50
2023-05-24T06:26:22.589Z,95703.88
2023-05-24T06:28:53.721Z,95705.47
2023-05-24T06:31:23.298Z,95708.94
2023-05-24T06:34:03.830Z,95701.09
2023-05-24T06:36:36.012Z,95711.03
2023-05-24T06:39:05.779Z,95718.50
2023-05-24T06:41:35.382Z,95720.66
2023-05-24T06:44:06.669Z,95725.50
2023-05-24T06:46:36.644Z,95724.59
2023-05-24T06:49:06.967Z,95727.56
2023-05-24T06:51:36.723Z,95730.22
2023-05-24T06:54:06.666Z,95729.72
2023-05-24T06:56:36.505Z,95732.66
2023-05-24T06:59:08.763Z,95732.63
2023-05-24T07:01:39.846Z,95732.38
2023-05-24T07:04:09.770Z,95736.69
2023-05-24T07:06:39.342Z,95735.63
2023-05-24T07:09:10.422Z,95736.41
2023-05-24T07:11:39.995Z,95736.84
2023-05-24T07:14:10.959Z,95737.63
2023-05-24T07:16:40.537Z,95749.19
2023-05-24T07:19:10.144Z,95751.63
2023-05-24T07:21:39.856Z,95748.28
2023-05-24T07:24:09.969Z,95739.28
2023-05-24T07:26:39.616Z,95742.81
2023-05-24T07:29:10.953Z,95739.50
2023-05-24T07:31:40.921Z,95741.53
2023-05-24T07:34:10.514Z,95737.91
2023-05-24T07:36:41.012Z,95737.63
2023-05-24T07:39:11.061Z,95739.34
2023-05-24T07:41:40.601Z,95746.16
2023-05-24T07:44:12.153Z,95744.09
2023-05-24T07:46:41.952Z,95747.25
2023-05-24T07:49:11.615Z,95742.63
2023-05-24T07:51:41.161Z,95738.56
2023-05-24T07:54:10.664Z,95737.84
2023-05-24T07:56:40.236Z,95741.34
2023-05-24T07:59:11.508Z,95741.16
2023-05-24T08:01:41.437Z,95732.50
2023-05-24T08:04:11.695Z,95738.44
2023-05-24T08:06:41.914Z,95742.44
2023-05-24T08:09:12.426Z,95739.75
2023-05-24T08:11:42.306Z,95749.91
2023-05-24T08:14:13.753Z,95742.31
2023-05-24T08:16:43.518Z,95750.97
2023-05-24T08:19:13.371Z,95758.84
2023-05-24T08:21:43.764Z,95750.56
2023-05-24T08:24:13.561Z,95749.78
2023-05-24T08:26:43.946Z,95761.16
2023-05-24T08:29:20.098Z,95756.91
2023-05-24T08:31:49.961Z,95769.34
2023-05-24T08:34:19.741Z,95769.84
2023-05-24T08:36:50.144Z,95764.34
2023-05-24T08:39:19.831Z,95761.53
2023-05-24T08:42:07.314Z,95762.56
2023-05-24T08:44:50.118Z,95759.41
2023-05-24T08:47:22.969Z,95755.84
2023-05-24T08:49:53.056Z,95757.47
2023-05-24T08:52:24.417Z,95751.47
2023-05-24T08:54:54.649Z,95744.88
2023-05-24T08:57:24.690Z,95754.47
2023-05-24T08:59:56.161Z,95752.78
2023-05-24T09:02:26.791Z,95759.75
2023-05-24T09:04:57.620Z,95755.66
2023-05-24T09:07:28.984Z,95758.53
2023-05-24T09:10:07.006Z,95758.75
2023-05-24T09:12:40.141Z,95755.06
2023-05-24T09:15:11.994Z,95759.06
2023-05-24T09:17:41.815Z,95760.13
2023-05-24T09:20:14.524Z,95756.41
2023-05-24T09:22:45.086Z,95767.00
2023-05-24T09:25:16.218Z,95755.09
2023-05-24T09:27:53.682Z,95767.06
2023-05-24T09:30:24.790Z,95768.97
2023-05-24T09:33:00.444Z,95763.56
2023-05-24T09:35:31.420Z,95756.25
2023-05-24T09:38:02.004Z,95761.75
2023-05-24T09:40:32.055Z,95777.22
2023-05-24T09:43:10.305Z,95777.00
2023-05-24T09:45:46.711Z,95776.81
2023-05-24T09:48:18.561Z,95773.69
2023-05-24T09:51:10.008Z,95774.88
2023-05-24T09:53:40.708Z,95781.38
2023-05-24T09:56:12.065Z,95776.50
2023-05-24T09:58:42.387Z,95779.38
2023-05-24T10:01:14.665Z,95772.25
2023-05-24T10:03:55.196Z,95780.31
2023-05-24T10:06:25.780Z,95782.13
2023-05-24T10:08:57.727Z,95781.72
2023-05-24T10:11:28.052Z,95784.59
2023-05-24T10:13:58.181Z,95789.84
2023-05-24T10:16:29.841Z,95787.91
2023-05-24T10:18:59.576Z,95797.31
2023-05-24T10:21:32.907Z,95783.78
2023-05-24T10:24:08.280Z,95783.41
2023-05-24T10:26:40.408Z,95783.09
2023-05-24T10:29:21.066Z,95786.56
2023-05-24T10:31:53.974Z,95787.34
2023-05-24T10:34:24.348Z,95787.97
2023-05-24T10:36:54.641Z,95794.31
2023-05-24T10:39:26.799Z,95791.09
2023-05-24T10:41:58.108Z,95785.69
2023-05-24T10:44:31.520Z,95792.50
2023-05-24T10:47:11.419Z,95786.03
2023-05-24T10:49:51.364Z,95790.94
2023-05-24T10:52:22.138Z,95793.63
2023-05-24T10:55:05.648Z,95786.38
2023-05-24T10:57:35.796Z,95789.66
2023-05-24T11:00:35.748Z,95786.94
2023-05-24T11:03:10.919Z,95796.72
2023-05-24T11:05:54.353Z,95791.03
2023-05-24T11:08:32.120Z,95793.72
2023-05-24T11:13:49.312Z,95789.22
2023-05-24T11:16:40.358Z,95780.13
2023-05-24T11:19:18.792Z,95792.03
2023-05-24T11:21:50.431Z,95793.13
2023-05-24T11:24:22.707Z,95791.22
2023-05-24T11:26:52.904Z,95788.00
2023-05-24T11:29:23.302Z,95786.91
2023-05-24T11:31:57.771Z,95782.00
2023-05-24T11:34:29.899Z,95784.81
2023-05-24T11:37:00.884Z,95792.91
2023-05-24T11:39:35.472Z,95790.47
2023-05-24T11:42:08.059Z,95787.94
2023-05-24T11:44:41.333Z,95778.38
2023-05-24T11:47:12.020Z,95778.81
2023-05-24T11:49:43.071Z,95769.03
2023-05-24T11:52:12.973Z,95776.97
2023-05-24T11:54:42.481Z,95776.56
2023-05-24T11:57:13.996Z,95777.44
2023-05-24T11:59:43.965Z,95778.31
2023-05-24T12:02:14.494Z,95772.03
2023-05-24T12:04:46.904Z,95771.16
2023-05-24T12:07:17.827Z,95774.03
2023-05-24T12:09:47.484Z,95772.38
2023-05-24T12:12:17.798Z,95782.34
2023-05-24T12:14:47.529Z,95773.66
2023-05-24T12:17:18.123Z,95781.47
2023-05-24T12:19:52.113Z,95778.50
2023-05-24T12:22:30.016Z,95774.41
2023-05-24T12:24:59.749Z,95771.34
2023-05-24T12:27:31.262Z,95777.50
2023-05-24T12:30:10.067Z,95777.69
2023-05-24T12:32:40.598Z,95780.66
2023-05-24T12:35:13.321Z,95771.16
2023-05-24T12:37:43.465Z,95769.41
2023-05-24T12:40:20.560Z,95761.41
2023-05-24T12:42:54.667Z,95775.84
2023-05-24T12:45:26.042Z,95772.13
2023-05-24T12:47:58.929Z,95771.78
2023-05-24T12:50:30.890Z,95771.91
2023-05-24T12:53:00.927Z,95768.25
2023-05-24T12:55:31.284Z,95764.50
2023-05-24T12:58:02.702Z,95763.97
2023-05-24T13:00:32.368Z,95766.75
2023-05-24T13:03:02.341Z,95763.59
2023-05-24T13:05:33.499Z,95767.31
2023-05-24T13:08:04.072Z,95762.00
2023-05-24T13:10:34.017Z,95763.81
2023-05-24T13:13:03.738Z,95764.34
2023-05-24T13:15:33.370Z,95766.03
2023-05-24T13:18:27.977Z,95758.59
2023-05-24T13:21:00.605Z,95758.81
2023-05-24T13:23:30.809Z,95761.97
2023-05-24T13:26:00.712Z,95768.88
2023-05-24T13:28:32.148Z,95762.03
2023-05-24T13:31:02.026Z,95755.22
2023-05-24T13:33:36.434Z,95750.47
2023-05-24T13:36:08.560Z,95751.19
2023-05-24T13:38:38.383Z,95750.91
2023-05-24T13:41:08.122Z,95759.06
2023-05-24T13:43:37.900Z,95758.16
2023-05-24T13:46:08.928Z,95756.34
2023-05-24T13:48:39.818Z,95761.78
2023-05-24T13:51:10.983Z,95769.50
2023-05-24T13:53:40.976Z,95761.16
2023-05-24T13:56:10.863Z,95762.16
2023-05-24T13:58:40.461Z,95767.09
2023-05-24T14:01:11.145Z,95765.41
2023-05-24T14:03:41.173Z,95765.81
2023-05-24T14:06:12.575Z,95766.25
2023-05-24T14:08:42.533Z,95756.44
2023-05-24T14:11:14.453Z,95755.88
2023-05-24T14:16:16.845Z,95757.13
2023-05-24T14:18:49.114Z,95753.84
2023-05-24T14:21:23.445Z,95751.03
2023-05-24T14:23:53.334Z,95750.25
2023-05-24T14:26:23.987Z,95746.47
2023-05-24T14:28:56.384Z,95742.81
2023-05-24T14:31:26.859Z,95741.16
2023-05-24T14:33:56.567Z,95742.72
2023-05-24T14:36:30.460Z,95726.81
2023-05-24T14:39:00.447Z,95727.66
2023-05-24T14:41:30.513Z,95726.59
2023-05-24T14:44:00.372Z,95733.00
2023-05-24T14:46:30.109Z,95731.81
2023-05-24T14:48:59.867Z,95735.09
2023-05-24T14:51:32.673Z,95726.91
2023-05-24T14:54:02.388Z,95731.47
2023-05-24T14:56:32.252Z,95735.28
2023-05-24T14:59:02.305Z,95731.22
2023-05-24T15:01:32.530Z,95729.16
2023-05-24T15:04:03.096Z,95725.69
2023-05-24T15:06:35.422Z,95716.28
2023-05-24T15:09:07.784Z,95718.84
2023-05-24T15:11:37.904Z,95714.13
2023-05-24T15:14:07.619Z,95715.72
2023-05-24T15:16:37.489Z,95714.03
2023-05-24T15:19:07.166Z,95718.22
2023-05-24T15:21:38.523Z,95712.75
2023-05-24T15:24:09.540Z,95715.81
2023-05-24T15:26:39.957Z,95711.16
2023-05-24T15:29:11.220Z,95715.63
2023-05-24T15:31:41.069Z,95710.66
2023-05-24T15:34:10.924Z,95717.28
2023-05-24T15:36:42.202Z,95712.63
2023-05-24T15:39:12.174Z,95709.56
2023-05-24T15:41:41.921Z,95707.94
2023-05-24T15:44:11.589Z,95706.66
2023-05-24T15:46:42.122Z,95701.69
2023-05-24T15:49:11.837Z,95707.63
2023-05-24T15:54:15.543Z,95696.84
2023-05-24T15:56:45.359Z,95702.94
2023-05-24T15:59:15.107Z,95703.53
2023-05-24T16:01:44.828Z,95708.28
2023-05-24T16:04:15.261Z,95699.56
2023-05-24T16:06:47.109Z,95694.84
2023-05-24T16:09:16.934Z,95704.38
2023-05-24T16:11:47.593Z,95697.84
2023-05-24T16:14:17.863Z,95702.47
2023-05-24T16:19:17.933Z,95699.47
2023-05-24T16:21:49.164Z,95699.81
2023-05-24T16:24:18.929Z,95701.78
2023-05-24T16:26:48.581Z,95700.19
2023-05-24T16:29:20.542Z,95697.03
2023-05-24T16:31:50.293Z,95693.16
2023-05-24T16:34:19.991Z,95696.97
2023-05-24T16:36:51.236Z,95689.78
2023-05-24T16:39:21.142Z,95694.84
2023-05-24T16:41:51.140Z,95689.63
2023-05-24T16:44:20.823Z,95693.72
2023-05-24T16:46:50.745Z,95690.59
2023-05-24T16:49:20.578Z,95689.59
2023-05-24T16:51:51.661Z,95691.72
2023-05-24T16:54:21.546Z,95695.09
2023-05-24T16:56:53.882Z,95691.56
2023-05-24T16:59:24.825Z,95688.34
2023-05-24T17:01:54.624Z,95690.72
2023-05-24T17:04:24.405Z,95696.25
2023-05-24T17:06:55.926Z,95696.66
2023-05-24T17:09:25.833Z,95692.97
2023-05-24T17:11:55.461Z,95699.81
2023-05-24T17:14:25.161Z,95704.22
2023-05-24T17:16:54.817Z,95700.00
2023-05-24T17:19:25.295Z,95703.72
2023-05-24T17:21:56.315Z,95710.88
2023-05-24T17:24:27.728Z,95709.31
2023-05-24T17:26:57.680Z,95714.75
2023-05-24T17:29:29.944Z,95724.03
2023-05-24T17:32:00.074Z,95706.97
2023-05-24T17:34:29.901Z,95720.41
2023-05-24T17:37:01.776Z,95732.91
2023-05-24T17:39:31.686Z,95736.50
2023-05-24T17:42:01.381Z,95737.03
2023-05-24T17:44:31.373Z,95740.41
2023-05-24T17:47:02.060Z,95736.28
2023-05-24T17:49:32.397Z,95735.84
2023-05-24T17:52:03.701Z,95743.16
2023-05-24T17:54:33.406Z,95750.84
2023-05-24T17:57:04.095Z,95755.31
2023-05-24T17:59:35.322Z,95757.84
2023-05-24T18:02:05.813Z,95765.81
2023-05-24T18:04:35.822Z,95758.81
2023-05-24T18:07:07.252Z,95769.44
2023-05-24T18:09:38.399Z,95774.66
2023-05-24T18:12:08.855Z,95779.53
2023-05-24T18:14:38.774Z,95779.00
2023-05-24T18:17:09.367Z,95786.69
2023-05-24T18:19:39.197Z,95787.53
2023-05-24T18:22:10.315Z,95782.41
2023-05-24T18:24:40.048Z,95786.50
2023-05-24T18:27:09.976Z,95777.09
2023-05-24T18:29:39.919Z,95793.13
2023-05-24T18:32:09.786Z,95795.56
2023-05-24T18:34:39.705Z,95806.09
2023-05-24T18:37:11.159Z,95800.19
2023-05-24T18:39:41.044Z,95809.13
2023-05-24T18:42:12.599Z,95816.16
2023-05-24T18:44:42.332Z,95813.19
2023-05-24T18:47:12.523Z,95807.53
2023-05-24T18:49:42.452Z,95813.75
2023-05-24T18:52:13.757Z,95813.22
2023-05-24T18:54:43.584Z,95810.53
2023-05-24T18:57:13.488Z,95812.69
2023-05-24T18:59:43.249Z,95815.41
2023-05-24T19:02:13.016Z,95823.47
2023-05-24T19:04:42.849Z,95821.31
2023-05-24T19:07:14.078Z,95820.75
2023-05-24T19:09:44.408Z,95817.28
2023-05-24T19:12:14.797Z,95820.78
2023-05-24T19:14:44.490Z,95821.84
2023-05-24T19:17:14.361Z,95823.47
2023-05-24T19:19:44.559Z,95825.59
2023-05-24T19:22:15.884Z,95825.06
2023-05-24T19:24:45.602Z,95827.75
2023-05-24T19:27:15.578Z,95829.38
2023-05-24T19:29:45.397Z,95833.94
2023-05-24T19:32:15.262Z,95834.75
2023-05-24T19:34:45.146Z,95835.53
2023-05-24T19:37:16.805Z,95848.97
2023-05-24T19:39:46.583Z,95844.09
2023-05-24T19:42:16.483Z,95851.91
2023-05-24T19:44:46.149Z,95838.97
2023-05-24T19:47:15.965Z,95850.81
2023-05-24T19:49:45.714Z,95857.78
2023-05-24T19:52:19.168Z,95849.41
2023-05-24T19:54:48.953Z,95852.63
2023-05-24T19:57:18.695Z,95866.88
2023-05-24T19:59:48.471Z,95858.50
2023-05-24T20:02:18.254Z,95854.44
2023-05-24T20:04:47.984Z,95854.19
2023-05-24T20:07:19.101Z,95866.03
2023-05-24T20:09:49.863Z,95857.16
2023-05-24T20:12:19.681Z,95855.00
2023-05-24T20:14:51.246Z,95855.81
2023-05-24T20:17:20.958Z,95856.91
2023-05-24T20:19:50.772Z,95852.31
2023-05-24T20:22:21.801Z,95846.41
2023-05-24T20:24:51.684Z,95847.50
2023-05-24T20:27:21.458Z,95850.19
2023-05-24T20:29:51.275Z,95847.75
2023-05-24T20:32:21.177Z,95843.41
2023-05-24T20:34:51.409Z,95839.63
2023-05-24T20:37:22.486Z,95837.72
2023-05-24T20:39:52.696Z,95842.28
2023-05-24T20:42:22.577Z,95851.94
2023-05-24T20:44:52.529Z,95842.53
2023-05-24T20:47:22.390Z,95849.00
2023-05-24T20:49:52.202Z,95843.56
2023-05-24T20:52:23.494Z,95848.91
2023-05-24T20:54:53.193Z,95847.25
2023-05-24T20:57:23.121Z,95845.06
2023-05-24T20:59:52.878Z,95841.56
2023-05-24T21:02:22.911Z,95842.88
2023-05-24T21:04:52.731Z,95837.72
2023-05-24T21:07:24.265Z,95836.63
2023-05-24T21:09:54.218Z,95845.72
2023-05-24T21:12:23.937Z,95847.84
2023-05-24T21:14:54.742Z,95849.72
2023-05-24T21:17:24.432Z,95855.59
2023-05-24T21:19:54.454Z,95853.19
2023-05-24T21:22:25.644Z,95859.66
2023-05-24T21:24:57.763Z,95859.09
2023-05-24T21:27:27.720Z,95859.34
2023-05-24T21:29:57.647Z,95856.41
2023-05-24T21:32:27.733Z,95855.34
2023-05-24T21:34:57.527Z,95852.66
2023-05-24T21:37:28.513Z,95859.09
2023-05-24T21:39:58.207Z,95851.03
2023-05-24T21:42:28.019Z,95863.13
2023-05-24T21:44:58.601Z,95865.81
2023-05-24T21:47:28.208Z,95858.56
2023-05-24T21:49:57.969Z,95853.47
2023-05-24T21:52:28.875Z,95856.72
2023-05-24T21:54:58.415Z,95858.63
2023-05-24T21:57:28.015Z,95853.56
2023-05-24T21:59:57.631Z,95857.91
2023-05-24T22:02:27.305Z,95856.59
2023-05-24T22:04:56.989Z,95862.50
2023-05-24T22:07:28.164Z,95861.97
2023-05-24T22:09:58.306Z,95860.09
2023-05-24T22:12:29.025Z,95857.69
2023-05-24T22:14:58.700Z,95854.75
2023-05-24T22:17:29.192Z,95853.44
2023-05-24T22:20:01.313Z,95857.22
2023-05-24T22:22:32.565Z,95853.19
2023-05-24T22:25:02.458Z,95861.00
2023-05-24T22:27:32.058Z,95857.25
2023-05-24T22:30:01.662Z,95860.50
2023-05-24T22:32:31.928Z,95861.56
2023-05-24T22:35:01.501Z,95863.19
2023-05-24T22:37:33.312Z,95874.50
2023-05-24T22:40:04.173Z,95871.25
2023-05-24T22:42:33.736Z,95868.31
2023-05-24T22:45:03.412Z,95869.13
2023-05-24T22:47:34.652Z,95873.44
2023-05-24T22:50:04.836Z,95873.44
2023-05-24T22:52:35.733Z,95875.03
2023-05-24T22:55:06.439Z,95864.03
2023-05-24T22:57:36.022Z,95859.47
2023-05-24T23:00:08.276Z,95854.88
2023-05-24T23:02:37.938Z,95851.13
2023-05-24T23:05:09.568Z,95844.94
2023-05-24T23:07:40.781Z,95836.88
2023-05-24T23:10:11.390Z,95835.25
2023-05-24T23:12:42.198Z,95832.56
2023-05-24T23:15:18.194Z,95844.94
2023-05-24T23:17:48.252Z,95844.13
2023-05-24T23:20:17.982Z,95847.38
2023-05-24T23:22:49.395Z,95835.78
2023-05-24T23:25:18.926Z,95842.25
2023-05-24T23:27:48.456Z,95840.09
2023-05-24T23:30:18.419Z,95840.09
2023-05-24T23:32:47.982Z,95833.91
2023-05-24T23:35:17.628Z,95829.34
2023-05-24T23:37:48.643Z,95837.16
2023-05-24T23:40:18.260Z,95835.53
2023-05-24T23:42:47.951Z,95835.28
2023-05-24T23:45:17.660Z,95834.22
2023-05-24T23:47:47.214Z,95837.97
2023-05-24T23:50:17.447Z,95834.22
2023-05-24T23:52:48.723Z,95844.97
2023-05-24T23:55:18.684Z,95842.53
2023-05-24T23:57:48.429Z,95837.69
